Estació municipal de Seva (Osona, P.N. del Montseny)

Consulta les dades en temps real de l'estació municipal de Seva





Hora UTC 07:10
Temperatura 21.6 ºC
Sòl 15 cm 22.2 ºC
Humitat 80.9 %
Pressió 1024.3 hPa
Pluja 0.0 mm
Velocitat vent 2.0 km/h
Direcció vent NNW
Radiació solar 258.0 W/m²

Webcam

Dades diàries 2026-09-04



Hora UTC (hivern +1h; estiu +2h)
Temperatura (ºC) Humitat (%) Pressió (hPa) Velocitat vent (km/h) Precipitació (mm) Radiació solar (W/m²)
Hora UTC Aire Sòl 15 cm Humitat Pressió Vel. Dir. Vel. Max Dir. Intent. màx 5 min. Rad. Sol.
00:05 20.1 18.3 88.7 1025.7 1.0 ESE 1.0 E 0.0 0.1
00:10 19.9 18.3 88.7 1025.7 2.3 ESE 3.5 ESE 0.0 0.1
00:15 19.8 18.2 88.8 1025.7 0.5 ESE 2.1 ESE 0.0 0.1
00:20 19.8 18.1 88.8 1025.6 0.1 SE 1.4 SE 0.0 0.1
00:25 19.7 18.0 88.9 1025.6 1.2 S 2.1 SSE 0.0 0.1
00:30 19.7 17.9 89.5 1025.6 1.4 SSE 2.5 SE 0.0 0.1
00:35 19.5 17.9 89.7 1025.6 2.2 E 3.9 ENE 0.0 0.0
00:40 19.5 17.9 90.5 1025.5 4.8 ENE 5.6 ENE 0.0 0.0
00:45 19.4 17.8 90.1 1025.5 3.4 E 4.2 E 0.0 0.1
00:50 19.4 17.8 90.6 1025.5 2.1 E 2.8 E 0.0 0.0
00:55 19.4 17.8 90.8 1025.5 2.1 E 3.2 E 0.0 0.1
01:00 19.4 17.7 90.3 1025.4 2.6 E 3.5 E 0.0 0.0
01:05 19.3 17.7 90.5 1025.4 2.6 E 3.5 ENE 0.0 0.0
01:10 19.3 17.7 90.8 1025.3 2.6 E 3.5 E 0.0 0.1
01:15 19.2 17.6 91.0 1025.3 2.6 ESE 3.5 ENE 0.0 0.1
01:20 19.4 17.6 91.9 1025.2 2.6 E 3.2 ENE 0.0 0.0
01:25 19.3 17.5 91.2 1025.2 2.2 E 2.8 ENE 0.0 0.1
01:30 19.3 17.6 91.2 1025.2 2.4 E 3.2 E 0.0 0.1
01:35 19.2 17.5 91.4 1025.1 3.5 ENE 4.6 E 0.0 0.1
01:40 19.2 17.5 91.6 1025.1 3.0 E 4.2 ENE 0.0 0.0
01:45 19.1 17.5 91.9 1025.1 0.9 E 2.5 E 0.0 0.0
01:50 19.1 17.4 91.8 1025.1 0.0 ESE 1.1 ESE 0.0 0.1
01:55 19.1 17.4 92.3 1025.1 0.0 NNE 0.0 SE 0.0 0.0
02:00 19.1 17.3 92.2 1025.0 0.0 NNE 0.0 SSW 0.0 0.0
02:05 18.9 17.2 92.3 1025.0 0.0 NNE 0.0 S 0.0 0.1
02:10 18.9 17.1 92.7 1025.0 0.4 ENE 1.8 NE 0.0 0.1
02:15 18.7 17.0 92.8 1025.0 0.1 NE 1.4 NE 0.0 0.1
02:20 18.7 17.0 93.4 1025.0 2.7 ENE 4.6 ENE 0.0 0.1
02:25 18.6 16.9 93.3 1025.0 2.5 E 3.9 ENE 0.0 0.0
02:30 18.7 16.9 93.8 1024.9 3.2 ENE 4.2 E 0.0 0.1
02:35 18.6 16.9 93.8 1024.9 2.5 E 3.5 ENE 0.0 0.1
02:40 18.6 16.9 93.8 1025.0 2.7 E 3.2 ENE 0.0 0.0
02:45 18.5 16.9 93.9 1024.9 3.8 E 5.3 E 0.0 0.1
02:50 18.5 16.9 94.0 1024.9 4.8 E 5.3 E 0.0 0.1
02:55 18.4 16.8 94.0 1024.9 4.0 E 4.6 E 0.0 0.0
03:00 18.4 16.8 94.0 1024.8 3.0 ENE 3.5 E 0.0 0.0
03:05 18.3 16.7 94.1 1024.9 2.2 ENE 3.7 ENE 0.0 0.1
03:10 18.2 16.6 94.0 1024.8 1.9 ENE 2.8 E 0.0 0.1
03:15 18.2 16.5 94.3 1024.8 1.9 NE 3.2 NE 0.0 0.1
03:20 18.2 16.5 94.2 1024.8 1.9 ENE 3.5 NE 0.0 0.1
03:25 18.3 16.4 94.4 1024.7 2.1 ENE 3.9 NE 0.0 0.0
03:30 18.4 16.5 94.3 1024.7 3.3 ENE 5.6 NNE 0.0 0.0
03:35 18.2 16.5 94.2 1024.7 1.6 ENE 3.5 E 0.0 0.1
03:40 18.3 16.5 94.4 1024.7 2.2 ENE 3.9 NE 0.0 0.1
03:45 18.2 16.4 94.4 1024.7 1.5 ENE 2.5 NE 0.0 0.0
03:50 18.3 16.4 94.6 1024.6 2.6 ENE 3.9 ENE 0.0 0.1
03:55 18.2 16.4 94.2 1024.5 1.0 E 2.8 ENE 0.0 0.0
04:00 18.3 16.4 94.5 1024.5 0.8 W 2.5 WSW 0.0 0.1
04:05 18.4 16.4 94.3 1024.5 0.5 W 2.5 WSW 0.0 0.0
04:10 18.2 16.4 94.1 1024.4 0.0 NNW 1.1 NNW 0.0 0.1
04:15 18.1 16.3 94.0 1024.4 0.6 E 2.5 E 0.0 0.1
04:20 18.1 16.2 94.1 1024.4 1.3 E 2.8 E 0.0 0.1
04:25 18.1 16.2 94.2 1024.4 2.6 E 3.5 E 0.0 0.1
04:30 18.0 16.2 94.1 1024.4 1.9 E 2.8 ESE 0.0 0.0
04:35 17.9 16.1 94.3 1024.4 1.2 E 1.8 E 0.0 0.1
04:40 17.8 16.0 94.5 1024.4 2.0 E 2.8 E 0.0 0.1
04:45 17.7 15.9 94.6 1024.4 1.0 SE 2.5 SE 0.0 0.0
04:50 17.6 15.9 94.9 1024.3 1.9 ESE 2.8 ESE 0.0 0.0
04:55 17.6 15.9 95.2 1024.2 2.7 E 3.5 E 0.0 0.1
05:00 17.6 15.9 95.4 1024.2 1.0 SE 2.3 E 0.0 0.1
05:05 17.7 15.9 95.9 1024.2 1.3 S 2.8 SW 0.0 0.3
05:10 17.6 15.9 95.8 1024.2 0.9 E 2.5 ESE 0.0 0.7
05:15 17.6 15.9 96.1 1024.3 1.7 SW 4.2 SW 0.0 1.6
05:20 17.7 15.8 96.2 1024.2 0.9 SE 2.1 SE 0.0 2.9
05:25 17.6 15.8 96.2 1024.1 2.5 ESE 4.6 E 0.0 4.7
05:30 17.6 15.8 96.2 1024.1 3.7 E 5.6 E 0.0 6.9
05:35 17.6 15.8 96.3 1024.1 0.9 ESE 2.1 SE 0.0 9.5
05:40 17.5 15.8 96.2 1024.1 1.5 ESE 3.0 ESE 0.0 12.3
05:45 17.5 15.9 96.2 1024.1 1.5 ESE 2.8 E 0.0 15.1
05:50 17.5 15.9 96.3 1024.1 3.7 ENE 5.3 NE 0.0 18.3
05:55 17.4 16.0 96.3 1024.1 4.9 ENE 6.0 ENE 0.0 31.5
06:00 17.5 16.0 96.4 1024.2 3.4 ENE 4.6 ENE 0.0 50.7
06:05 17.7 16.1 96.6 1024.2 2.5 E 3.2 E 0.0 85.2
06:10 17.8 16.3 96.5 1024.3 1.5 E 2.1 ENE 0.0 100.3
06:15 17.9 16.4 96.5 1024.3 1.7 ENE 3.2 ENE 0.0 113.3
06:20 18.1 16.6 96.3 1024.3 2.9 ENE 3.9 NE 0.0 125.8
06:25 18.3 16.9 95.9 1024.3 2.5 NE 3.9 ENE 0.0 138.3
06:30 18.5 17.1 95.6 1024.2 1.3 NE 2.8 NE 0.0 149.4
06:35 18.7 17.3 95.3 1024.3 0.1 NNW 1.4 NE 0.0 159.7
06:40 19.0 17.4 94.4 1024.3 0.5 NW 1.8 NW 0.0 171.1
06:45 19.6 17.6 92.3 1024.3 1.1 WNW 3.2 W 0.0 185.3
06:50 20.2 18.5 88.9 1024.3 2.0 NW 3.5 NW 0.0 199.4
06:55 20.5 20.2 86.1 1024.3 1.6 NW 4.2 WNW 0.0 213.7
07:00 21.0 20.7 84.4 1024.3 0.9 N 2.8 NNW 0.0 228.7
07:05 21.4 21.3 82.0 1024.3 2.9 NNW 4.6 NNW 0.0 243.6
07:10 21.6 22.2 80.9 1024.3 2.0 NNW 3.2 WNW 0.0 258.0
Màxima 21.6 22.2 96.6 1025.7 4.9 ENE 6.0 ENE 0.0 258.0
Mínima 17.4 15.8 80.9 1024.1
Total 0.0